Weather observations for the past three days for
Delta County Airport
| Date | Time (edt) | Wind (kph) | Vis. (km) | Weather | Sky Cond. | Temperature (ºC) | Relative Humidity | Wind Chill (°C) | Heat Index (°C) | Pressure | Precipitation (cm) | ||||||
|---|---|---|---|---|---|---|---|---|---|---|---|---|---|---|---|---|---|
| Air | Dwpt | 6 hour | altimeter (cm) | sea level (mb) | 1 hr | 3 hr | 6 hr | ||||||||||
| Max. | Min. | ||||||||||||||||
| 08 | 07:56 | Calm | 16.09 | Mostly Cloudy | BKN085 | 3.9 | 3.9 | 3.9 | 0 | 100% | 75.64 | 1009.3 | |||||
| 08 | 06:56 | Calm | 16.09 | Mostly Cloudy | BKN085 | 0 | 0 | 100% | 75.64 | 1009.3 | |||||||
| 08 | 05:56 | Calm | 16.09 | Overcast | OVC090 | 1.1 | 1.1 | 100% | 75.64 | 1009.4 | |||||||
| 08 | 04:56 | Calm | 16.09 | Overcast | FEW055 BKN080 OVC100 | 1.7 | 1.1 | 96% | 75.69 | 1009.9 | |||||||
| 08 | 03:56 | Calm | 16.09 | Overcast | OVC090 | 1.7 | 1.7 | 100% | 75.72 | 1010.3 | |||||||
| 08 | 02:56 | SW 7 | 16.09 | Overcast | FEW065 OVC095 | 1.7 | 1.7 | 100% | -0 | 75.74 | 1010.7 | ||||||
| 08 | 01:56 | NW 6 | 16.09 | Mostly Cloudy | SCT070 BKN100 | 2.8 | 2.2 | 7.8 | 2.8 | 96% | 75.77 | 1011.0 | |||||
| 08 | 00:56 | Calm | 16.09 | Overcast | FEW046 OVC065 | 3.9 | 2.2 | 89% | 75.82 | 1011.5 | |||||||
| 07 | 23:56 | NE 11 | 16.09 | Light Rain | SCT032 BKN045 OVC060 | 4.4 | 1.7 | 83% | 2 | 75.82 | 1011.7 | ||||||
| 07 | 22:56 | W 13 | 16.09 | Light Rain | FEW030 BKN047 OVC070 | 5.6 | 0 | 68% | 3 | 75.84 | 1011.8 | ||||||
| 07 | 21:56 | S 17 | 16.09 | Fair | CLR | 5.6 | 0.6 | 71% | 3 | 75.72 | 1010.4 | ||||||
| 07 | 20:56 | S 13 | 16.09 | A Few Clouds | FEW090 | 6.1 | 0.6 | 68% | 4 | 75.72 | 1010.5 | ||||||
| 07 | 19:56 | S 17 | 16.09 | Overcast | SCT075 OVC100 | 7.8 | -0.6 | 10 | 7.2 | 56% | 5 | 75.69 | 1010.1 | ||||
| 07 | 18:56 | S 17 | 16.09 | Overcast | FEW070 OVC100 | 8.3 | -1.1 | 52% | 6 | 75.69 | 1010.1 | ||||||
| 07 | 17:56 | SW 19 | 16.09 | Overcast | FEW049 SCT070 OVC100 | 8.9 | -3.9 | 41% | 6 | 75.72 | 1010.3 | ||||||
| 07 | 16:56 | Vrbl 7 | 16.09 | Mostly Cloudy | SCT075 BKN100 | 9.4 | -1.7 | 46% | 9 | 75.72 | 1010.4 | ||||||
| 07 | 15:56 | W 19 | 16.09 | Mostly Cloudy | BKN060 BKN090 | 9.4 | -4.4 | 38% | 7 | 75.74 | 1010.6 | ||||||
| 07 | 14:56 | SW 11 | 16.09 | Overcast | SCT055 SCT070 OVC085 | 8.3 | -3.9 | 42% | 7 | 75.77 | 1011.0 | ||||||
| 07 | 13:56 | W 15 | 16.09 | Overcast | BKN060 OVC080 | 7.8 | -3.3 | 8.3 | 2.2 | 46% | 6 | 75.82 | 1011.5 | ||||
| 07 | 12:56 | W 20 | 16.09 | Overcast | BKN060 OVC070 | 7.8 | -4.4 | 42% | 5 | 75.84 | 1011.8 | ||||||
| 07 | 11:56 | W 11 | 16.09 | Overcast | FEW060 OVC085 | 7.8 | -3.9 | 44% | 6 | 75.87 | 1012.3 | ||||||
| 07 | 10:56 | W 15 | 16.09 | Overcast | OVC080 | 6.7 | -2.8 | 51% | 4 | 75.9 | 1012.8 | ||||||
| 07 | 09:56 | W 13 | 16.09 | Overcast | SCT065 OVC080 | 5.6 | -1.7 | 60% | 3 | 75.92 | 1013.1 | ||||||
| 07 | 08:56 | W 11 | 16.09 | Overcast | OVC065 | 3.9 | -1.7 | 67% | 1 | 75.92 | 1013.2 | ||||||
| 07 | 07:56 | Calm | 16.09 | Overcast | OVC065 | 2.2 | 0 | 2.8 | 0.6 | 86% | 75.92 | 1012.9 | |||||
| 07 | 06:56 | W 6 | 16.09 | Overcast | OVC065 | 1.7 | -1.7 | 78% | 75.87 | 1012.6 | |||||||
| 07 | 05:56 | W 6 | 16.09 | Overcast | OVC070 | 1.1 | -0.6 | 89% | 75.9 | 1012.6 | |||||||
| 07 | 04:56 | Calm | 16.09 | Overcast | OVC075 | 1.7 | -1.1 | 82% | 75.9 | 1012.9 | |||||||
| 07 | 03:56 | W 6 | 16.09 | Overcast | BKN065 OVC080 | 2.8 | -1.1 | 76% | 75.95 | 1013.3 | |||||||
| 07 | 02:56 | Calm | 16.09 | Overcast | OVC075 | 2.2 | -1.1 | 79% | 75.97 | 1013.6 | |||||||
| 07 | 01:56 | Calm | 16.09 | Overcast | OVC075 | 2.8 | -1.7 | 6.7 | 2.8 | 73% | 76 | 1014.2 | |||||
| 07 | 00:56 | Calm | 16.09 | Overcast | OVC070 | 3.9 | -1.7 | 67% | 76.02 | 1014.4 | |||||||
| 06 | 23:56 | NE 7 | 16.09 | Overcast | OVC080 | 3.9 | -1.7 | 67% | 2 | 76.02 | 1014.5 | ||||||
| 06 | 22:56 | W 6 | 16.09 | Overcast | OVC080 | 3.3 | -0.6 | 76% | 76.02 | 1014.5 | |||||||
| 06 | 21:56 | S 7 | 16.09 | Overcast | OVC080 | 4.4 | -1.7 | 65% | 3 | 76 | 1014.2 | ||||||
| 06 | 20:56 | W 11 | 16.09 | Overcast | OVC075 | 6.1 | -5.6 | 43% | 4 | 75.97 | 1013.9 | ||||||
| 06 | 19:56 | W 15 | 16.09 | Overcast | OVC065 | 6.7 | -6.1 | 7.8 | 5.6 | 40% | 4 | 75.95 | 1013.6 | ||||
| 06 | 18:56 | NW 20 | 16.09 | Overcast | OVC065 | 6.7 | -6.1 | 40% | 3 | 75.95 | 1013.4 | ||||||
| 06 | 17:56 | NW 13 | 16.09 | Overcast | OVC075 | 6.7 | -4.4 | 45% | 4 | 75.95 | 1013.5 | ||||||
| 06 | 16:56 | W 20 G 33 | 16.09 | Overcast | FEW055 OVC075 | 7.2 | -5 | 42% | 4 | 75.95 | 1013.2 | ||||||
| 06 | 15:56 | W 15 | 16.09 | Overcast | OVC055 | 6.7 | -4.4 | 45% | 4 | 75.97 | 1013.5 | ||||||
| 06 | 14:56 | W 19 G 26 | 16.09 | Overcast | OVC055 | 6.1 | -5.6 | 43% | 3 | 75.95 | 1013.4 | ||||||
| 06 | 13:56 | W 13 | 16.09 | Overcast | OVC055 | 5.6 | -5.6 | 6.7 | 2.2 | 45% | 3 | 75.97 | 1013.6 | ||||
| 06 | 12:56 | W 19 | 16.09 | Overcast | OVC055 | 6.1 | -6.1 | 42% | 3 | 76 | 1014.0 | ||||||
| 06 | 11:56 | NW 20 | 16.09 | Overcast | OVC055 | 6.1 | -6.1 | 42% | 3 | 76 | 1013.9 | ||||||
| 06 | 10:56 | NW 17 G 33 | 16.09 | Overcast | SCT047 OVC060 | 5.6 | -5.6 | 45% | 3 | 75.97 | 1013.8 | ||||||
| 06 | 09:56 | NW 19 | 16.09 | Overcast | FEW041 OVC065 | 5 | -4.4 | 51% | 2 | 75.97 | 1013.8 | ||||||
| 06 | 08:56 | W 13 | 16.09 | Overcast | OVC065 | 3.3 | -3.9 | 60% | 0 | 75.97 | 1013.8 | ||||||
| 06 | 07:56 | W 9 | 16.09 | Overcast | OVC065 | 2.2 | -2.8 | 3.3 | -0.6 | 70% | -0 | 75.95 | 1013.4 | ||||
| 06 | 06:56 | W 7 | 16.09 | Overcast | OVC065 | 1.1 | -3.3 | 73% | -1 | 75.87 | 1012.5 | ||||||
| 06 | 05:56 | NW 7 | 16.09 | Overcast | OVC060 | 1.7 | -3.9 | 67% | -0 | 75.87 | 1012.2 | ||||||
| 06 | 04:56 | W 7 | 16.09 | Overcast | OVC055 | 0.6 | -2.8 | 78% | -1 | 75.87 | 1012.4 | ||||||
| 06 | 03:56 | W 7 | 16.09 | Overcast | OVC065 | 0 | -2.2 | 85% | -2 | 75.87 | 1012.2 | ||||||
| 06 | 02:56 | Calm | 16.09 | A Few Clouds | FEW065 | 1.1 | -5 | 64% | 75.84 | 1012.1 | |||||||
| 06 | 01:56 | Calm | 16.09 | Overcast | OVC065 | 3.3 | -6.1 | 7.8 | 3.3 | 51% | 75.87 | 1012.1 | |||||
| 06 | 00:56 | NW 6 | 16.09 | Overcast | OVC060 | 3.9 | -5.6 | 50% | 75.84 | 1011.9 | |||||||
| 05 | 23:56 | NW 7 | 16.09 | Overcast | OVC065 | 4.4 | -5 | 51% | 3 | 75.82 | 1011.5 | ||||||
| 05 | 22:56 | N 7 | 16.09 | Overcast | OVC070 | 4.4 | -2.2 | 63% | 3 | 75.82 | 1011.5 | ||||||
| 05 | 21:56 | NW 7 | 16.09 | Overcast | OVC070 | 6.1 | -6.1 | 42% | 5 | 75.74 | 1010.6 | ||||||
| 05 | 20:56 | NW 15 | 16.09 | Overcast | OVC070 | 7.2 | -5 | 42% | 5 | 75.69 | 1009.9 | ||||||
| 05 | 19:56 | NW 11 | 16.09 | Overcast | OVC070 | 7.8 | -4.4 | 11.1 | 7.8 | 42% | 6 | 75.67 | 1009.4 | ||||
| 05 | 18:56 | NW 20 | 16.09 | Overcast | OVC075 | 8.9 | -4.4 | 39% | 6 | 75.59 | 1008.6 | ||||||
| 05 | 17:56 | NW 22 G 31 | 16.09 | Overcast | OVC075 | 9.4 | -4.4 | 38% | 7 | 75.54 | 1007.8 | ||||||
| 05 | 16:56 | NW 17 | 16.09 | Overcast | OVC080 | 10.6 | -5 | 33% | 75.51 | 1007.3 | |||||||
| 05 | 15:56 | W 13 G 37 | 16.09 | Overcast | OVC075 | 10.6 | -4.4 | 35% | 75.46 | 1006.9 | |||||||
| 05 | 14:56 | W 28 G 37 | 16.09 | Overcast | OVC080 | 11.1 | -3.9 | 35% | 75.44 | 1006.4 | |||||||
| 05 | 13:56 | W 28 G 33 | 16.09 | Overcast | OVC070 | 9.4 | -5 | 10.6 | 5 | 36% | 6 | 75.41 | 1006.0 | ||||
| 05 | 12:56 | W 26 G 35 | 16.09 | Overcast | OVC070 | 9.4 | -3.9 | 39% | 6 | 75.39 | 1005.6 | ||||||
| 05 | 11:56 | W 26 G 37 | 16.09 | Overcast | FEW055 OVC075 | 8.9 | -3.3 | 42% | 6 | 75.39 | 1005.8 | ||||||
| 05 | 10:56 | W 20 | 16.09 | Overcast | BKN055 OVC070 | 7.8 | -3.9 | 44% | 5 | 75.39 | 1005.7 | ||||||
| 05 | 09:56 | W 28 G 35 | 16.09 | Overcast | BKN045 BKN055 OVC080 | 7.2 | -3.3 | 48% | 3 | 75.39 | 1005.5 | ||||||
| 05 | 08:56 | W 13 | 16.09 | Overcast | OVC080 | 6.1 | -2.2 | 56% | 4 | 75.34 | 1004.9 | ||||||
| Date | Time (edt) | Wind (kph) | Vis. (km) | Weather | Sky Cond. | Air | Dwpt | Max. | Min. | Relative Humidity | Wind Chill (°C) | Heat Index (°C) | altimeter (cm) | sea level (mb) | 1 hr | 3 hr | 6 hr |
| 6 hour | |||||||||||||||||
| Temperature (ºC) | Pressure | Precipitation (cm) | |||||||||||||||